Aviation Digital Data Service (ADDS)

Output produced by METARs form (0416 UTC 26 April 2019)
found at http://www.aviationweather.gov/metar/data/
 
Forecast for: RJFS (SAGA AIRPORT , JP)
Text: TAF RJFS 252311Z 2600/2706 26013KT 9999 FEW020 SCT030
Forecast period: 0000 to 1200 UTC 26 April 2019
Forecast type: FROM: standard forecast or significant change
Winds: from the W (260 degrees) at 15 MPH (13 knots; 6.7 m/s)
Visibility: 6 or more miles 10+ km)
Ceiling: at least 12,000 feet AGL
Clouds: few clouds at 2000 feet AGL
scattered clouds at 3000 feet AGL
Weather: no significant weather forecast for this period
Text: BECMG 2612/2615 36010KT
Forecast period: 1200 to 2100 UTC 26 April 2019
Forecast type: BECOMING: Conditions expected to become as follows by 1500 UTC 26 April 2019
Winds: from the N (360 degrees) at 12 MPH (10 knots; 5.1 m/s)
Visibility: 6 or more miles 10+ km)
Ceiling: at least 12,000 feet AGL
Clouds: few clouds at 2000 feet AGL
scattered clouds at 3000 feet AGL
Weather: no significant weather forecast for this period
Text: BECMG 2621/2700 02012KT
Forecast period: 2100 UTC 26 April 2019 to 0600 UTC 27 April 2019
Forecast type: BECOMING: Conditions expected to become as follows by 0000 UTC 27 April 2019
Winds: from the NNE (20 degrees) at 14 MPH (12 knots; 6.2 m/s)
Visibility: 6 or more miles 10+ km)
Ceiling: at least 12,000 feet AGL
Clouds: few clouds at 2000 feet AGL
scattered clouds at 3000 feet AGL
Weather: no significant weather forecast for this period